sensor_id;sensor_type;location;lat;lon;timestamp;pressure;altitude;pressure_sealevel;temperature;humidity
19208;BME280;9737;59.466;18.036;2023-05-25T00:00:49;101520.91;;;17.40;29.74
19208;BME280;9737;59.466;18.036;2023-05-25T00:03:28;101503.72;;;17.31;29.70
19208;BME280;9737;59.466;18.036;2023-05-25T00:05:58;101493.94;;;17.30;29.89
19208;BME280;9737;59.466;18.036;2023-05-25T00:08:28;101501.75;;;17.33;29.82
19208;BME280;9737;59.466;18.036;2023-05-25T00:10:56;101484.31;;;17.27;29.97
19208;BME280;9737;59.466;18.036;2023-05-25T00:13:25;101477.34;;;17.25;30.09
19208;BME280;9737;59.466;18.036;2023-05-25T00:15:53;101471.25;;;17.23;30.08
19208;BME280;9737;59.466;18.036;2023-05-25T00:18:21;101423.06;;;17.10;30.07
19208;BME280;9737;59.466;18.036;2023-05-25T00:20:50;101447.59;;;17.17;30.20
19208;BME280;9737;59.466;18.036;2023-05-25T00:23:20;101395.84;;;17.03;30.13
19208;BME280;9737;59.466;18.036;2023-05-25T00:25:48;101378.03;;;17.02;30.47
19208;BME280;9737;59.466;18.036;2023-05-25T00:28:16;101402.06;;;17.04;30.32
19208;BME280;9737;59.466;18.036;2023-05-25T00:30:45;101391.59;;;17.01;30.37
19208;BME280;9737;59.466;18.036;2023-05-25T00:33:13;101380.00;;;17.00;30.40
19208;BME280;9737;59.466;18.036;2023-05-25T00:35:47;101380.00;;;17.00;30.52
19208;BME280;9737;59.466;18.036;2023-05-25T00:38:16;101367.09;;;16.94;30.43
19208;BME280;9737;59.466;18.036;2023-05-25T00:40:44;101289.31;;;16.72;30.54
19208;BME280;9737;59.466;18.036;2023-05-25T00:43:12;101247.09;;;16.63;30.74
19208;BME280;9737;59.466;18.036;2023-05-25T00:45:40;101184.09;;;16.46;30.59
19208;BME280;9737;59.466;18.036;2023-05-25T00:48:10;101142.06;;;16.35;30.73
19208;BME280;9737;59.466;18.036;2023-05-25T00:50:40;101147.44;;;16.35;30.74
19208;BME280;9737;59.466;18.036;2023-05-25T00:53:09;101119.72;;;16.25;30.99
19208;BME280;9737;59.466;18.036;2023-05-25T00:55:40;101130.91;;;16.30;30.80
19208;BME280;9737;59.466;18.036;2023-05-25T00:58:12;101135.28;;;16.31;30.81
19208;BME280;9737;59.466;18.036;2023-05-25T01:00:41;101139.53;;;16.34;31.13
19208;BME280;9737;59.466;18.036;2023-05-25T01:03:14;101172.06;;;16.40;30.96
19208;BME280;9737;59.466;18.036;2023-05-25T01:05:46;101161.59;;;16.37;31.09
19208;BME280;9737;59.466;18.036;2023-05-25T01:08:16;101157.91;;;16.38;31.25
19208;BME280;9737;59.466;18.036;2023-05-25T01:10:47;101152.53;;;16.38;31.33
19208;BME280;9737;59.466;18.036;2023-05-25T01:13:17;101164.41;;;16.36;31.21
19208;BME280;9737;59.466;18.036;2023-05-25T01:15:46;101137.97;;;16.31;31.21
19208;BME280;9737;59.466;18.036;2023-05-25T01:18:16;101133.56;;;16.30;31.41
19208;BME280;9737;59.466;18.036;2023-05-25T01:20:58;101146.72;;;16.33;31.49
19208;BME280;9737;59.466;18.036;2023-05-25T01:23:42;101155.63;;;16.34;31.70
19208;BME280;9737;59.466;18.036;2023-05-25T01:26:12;101147.72;;;16.32;31.39
19208;BME280;9737;59.466;18.036;2023-05-25T01:28:46;101146.00;;;16.31;31.58
19208;BME280;9737;59.466;18.036;2023-05-25T01:31:17;101140.91;;;16.28;31.72
19208;BME280;9737;59.466;18.036;2023-05-25T01:33:48;101125.34;;;16.22;31.83
19208;BME280;9737;59.466;18.036;2023-05-25T01:36:18;101116.31;;;16.23;31.96
19208;BME280;9737;59.466;18.036;2023-05-25T01:38:47;101128.63;;;16.26;31.72
19208;BME280;9737;59.466;18.036;2023-05-25T01:41:15;101124.38;;;16.23;31.82
19208;BME280;9737;59.466;18.036;2023-05-25T01:43:43;101124.50;;;16.22;32.01
19208;BME280;9737;59.466;18.036;2023-05-25T01:46:18;101107.78;;;16.18;31.87
19208;BME280;9737;59.466;18.036;2023-05-25T01:48:54;101106.84;;;16.19;32.03
19208;BME280;9737;59.466;18.036;2023-05-25T01:51:30;101113.16;;;16.18;32.27
19208;BME280;9737;59.466;18.036;2023-05-25T01:54:06;101108.63;;;16.19;32.29
19208;BME280;9737;59.466;18.036;2023-05-25T01:56:36;101120.97;;;16.21;32.53
19208;BME280;9737;59.466;18.036;2023-05-25T01:59:06;101151.66;;;16.28;32.38
19208;BME280;9737;59.466;18.036;2023-05-25T02:01:35;101127.03;;;16.23;32.56
19208;BME280;9737;59.466;18.036;2023-05-25T02:04:04;101115.72;;;16.20;32.56
19208;BME280;9737;59.466;18.036;2023-05-25T02:06:35;101087.84;;;16.11;32.62
19208;BME280;9737;59.466;18.036;2023-05-25T02:09:03;101072.13;;;16.06;32.57
19208;BME280;9737;59.466;18.036;2023-05-25T02:11:31;101064.34;;;16.03;32.84
19208;BME280;9737;59.466;18.036;2023-05-25T02:13:59;101095.03;;;16.10;32.72
19208;BME280;9737;59.466;18.036;2023-05-25T02:16:27;101074.94;;;16.05;33.07
19208;BME280;9737;59.466;18.036;2023-05-25T02:18:56;101086.25;;;16.08;32.94
19208;BME280;9737;59.466;18.036;2023-05-25T02:21:24;101068.16;;;16.01;32.88
19208;BME280;9737;59.466;18.036;2023-05-25T02:23:55;101054.03;;;15.99;33.26
19208;BME280;9737;59.466;18.036;2023-05-25T02:26:24;101076.91;;;16.03;32.92
19208;BME280;9737;59.466;18.036;2023-05-25T02:28:52;101050.50;;;15.98;33.01
19208;BME280;9737;59.466;18.036;2023-05-25T02:31:20;101060.25;;;15.99;33.01
19208;BME280;9737;59.466;18.036;2023-05-25T02:33:48;101062.78;;;16.01;33.29
19208;BME280;9737;59.466;18.036;2023-05-25T02:36:17;101059.41;;;15.99;33.48
19208;BME280;9737;59.466;18.036;2023-05-25T02:38:48;101023.59;;;15.89;33.31
19208;BME280;9737;59.466;18.036;2023-05-25T02:41:19;101021.91;;;15.88;33.38
19208;BME280;9737;59.466;18.036;2023-05-25T02:43:50;101001.69;;;15.84;33.79
19208;BME280;9737;59.466;18.036;2023-05-25T02:46:19;101007.06;;;15.84;33.54
19208;BME280;9737;59.466;18.036;2023-05-25T02:48:49;101017.50;;;15.87;33.59
19208;BME280;9737;59.466;18.036;2023-05-25T02:51:18;101017.50;;;15.87;33.95
19208;BME280;9737;59.466;18.036;2023-05-25T02:53:47;100996.72;;;15.79;33.75
19208;BME280;9737;59.466;18.036;2023-05-25T02:56:15;101023.72;;;15.87;33.76
19208;BME280;9737;59.466;18.036;2023-05-25T02:58:46;101026.53;;;15.86;34.15
19208;BME280;9737;59.466;18.036;2023-05-25T03:01:14;101036.16;;;15.88;33.99
19208;BME280;9737;59.466;18.036;2023-05-25T03:03:45;101045.66;;;15.92;34.21
19208;BME280;9737;59.466;18.036;2023-05-25T03:06:18;101052.00;;;15.91;34.14
19208;BME280;9737;59.466;18.036;2023-05-25T03:08:48;101051.03;;;15.92;34.18
19208;BME280;9737;59.466;18.036;2023-05-25T03:11:16;101031.19;;;15.84;34.30
19208;BME280;9737;59.466;18.036;2023-05-25T03:13:46;100992.75;;;15.73;34.24
19208;BME280;9737;59.466;18.036;2023-05-25T03:16:15;101018.06;;;15.80;34.51
19208;BME280;9737;59.466;18.036;2023-05-25T03:18:43;100991.91;;;15.73;34.52
19208;BME280;9737;59.466;18.036;2023-05-25T03:21:12;101009.28;;;15.78;34.62
19208;BME280;9737;59.466;18.036;2023-05-25T03:23:41;100986.41;;;15.74;34.57
19208;BME280;9737;59.466;18.036;2023-05-25T03:26:09;100998.81;;;15.75;34.96
19208;BME280;9737;59.466;18.036;2023-05-25T03:28:38;101020.72;;;15.80;34.74
19208;BME280;9737;59.466;18.036;2023-05-25T03:31:08;101027.78;;;15.82;34.79
19208;BME280;9737;59.466;18.036;2023-05-25T03:33:36;100995.44;;;15.73;34.94
19208;BME280;9737;59.466;18.036;2023-05-25T03:36:06;100980.72;;;15.68;34.86
19208;BME280;9737;59.466;18.036;2023-05-25T03:38:36;100962.38;;;15.63;35.20
19208;BME280;9737;59.466;18.036;2023-05-25T03:41:04;100942.38;;;15.56;35.23
19208;BME280;9737;59.466;18.036;2023-05-25T03:43:33;100960.66;;;15.62;35.33
19208;BME280;9737;59.466;18.036;2023-05-25T03:46:02;100956.38;;;15.60;35.42
19208;BME280;9737;59.466;18.036;2023-05-25T03:48:32;100939.69;;;15.56;35.45
19208;BME280;9737;59.466;18.036;2023-05-25T03:51:00;100945.03;;;15.56;35.36
19208;BME280;9737;59.466;18.036;2023-05-25T03:53:29;100975.78;;;15.63;35.54
19208;BME280;9737;59.466;18.036;2023-05-25T03:55:57;100987.06;;;15.67;35.43
19208;BME280;9737;59.466;18.036;2023-05-25T03:58:26;100977.47;;;15.64;35.73
19208;BME280;9737;59.466;18.036;2023-05-25T04:00:55;101039.63;;;15.79;35.76
19208;BME280;9737;59.466;18.036;2023-05-25T04:03:23;101027.34;;;15.76;35.86
19208;BME280;9737;59.466;18.036;2023-05-25T04:05:53;101031.00;;;15.75;35.74
19208;BME280;9737;59.466;18.036;2023-05-25T04:08:24;101052.91;;;15.80;35.98
19208;BME280;9737;59.466;18.036;2023-05-25T04:10:54;100994.41;;;15.65;36.10
19208;BME280;9737;59.466;18.036;2023-05-25T04:13:23;100996.22;;;15.64;35.96
19208;BME280;9737;59.466;18.036;2023-05-25T04:15:52;100998.91;;;15.64;36.09
19208;BME280;9737;59.466;18.036;2023-05-25T04:18:21;101059.84;;;15.83;36.40
19208;BME280;9737;59.466;18.036;2023-05-25T04:20:50;101103.69;;;15.93;36.25
19208;BME280;9737;59.466;18.036;2023-05-25T04:23:20;101174.69;;;16.10;36.32
19208;BME280;9737;59.466;18.036;2023-05-25T04:25:48;101221.13;;;16.22;36.54
19208;BME280;9737;59.466;18.036;2023-05-25T04:28:17;101274.59;;;16.34;36.53
19208;BME280;9737;59.466;18.036;2023-05-25T04:30:46;101265.81;;;16.32;36.72
19208;BME280;9737;59.466;18.036;2023-05-25T04:33:15;101326.41;;;16.46;36.65
19208;BME280;9737;59.466;18.036;2023-05-25T04:35:44;101358.84;;;16.54;36.89
19208;BME280;9737;59.466;18.036;2023-05-25T04:38:12;101422.88;;;16.70;36.98
19208;BME280;9737;59.466;18.036;2023-05-25T04:40:45;101484.25;;;16.86;36.97
19208;BME280;9737;59.466;18.036;2023-05-25T04:43:13;101458.13;;;16.77;37.14
19208;BME280;9737;59.466;18.036;2023-05-25T04:45:44;101493.19;;;16.86;37.21
19208;BME280;9737;59.466;18.036;2023-05-25T04:48:13;101521.38;;;16.92;37.30
19208;BME280;9737;59.466;18.036;2023-05-25T04:50:42;101525.75;;;16.93;37.38
19208;BME280;9737;59.466;18.036;2023-05-25T04:53:11;101532.69;;;16.95;37.53
19208;BME280;9737;59.466;18.036;2023-05-25T04:55:39;101560.03;;;17.00;37.54
19208;BME280;9737;59.466;18.036;2023-05-25T04:58:10;101585.47;;;17.08;37.66
19208;BME280;9737;59.466;18.036;2023-05-25T05:00:40;101567.84;;;17.03;37.68
19208;BME280;9737;59.466;18.036;2023-05-25T05:03:10;101608.41;;;17.12;37.72
19208;BME280;9737;59.466;18.036;2023-05-25T05:05:39;101610.13;;;17.13;37.83
19208;BME280;9737;59.466;18.036;2023-05-25T05:08:10;101646.97;;;17.22;37.97
19208;BME280;9737;59.466;18.036;2023-05-25T05:10:38;101691.78;;;17.32;37.93
19208;BME280;9737;59.466;18.036;2023-05-25T05:13:07;101694.63;;;17.31;38.18
19208;BME280;9737;59.466;18.036;2023-05-25T05:15:38;101763.91;;;17.50;38.13
19208;BME280;9737;59.466;18.036;2023-05-25T05:18:07;101805.31;;;17.58;38.32
19208;BME280;9737;59.466;18.036;2023-05-25T05:20:36;101825.59;;;17.62;38.22
19208;BME280;9737;59.466;18.036;2023-05-25T05:23:05;101906.34;;;17.85;38.45
19208;BME280;9737;59.466;18.036;2023-05-25T05:25:34;102004.09;;;18.08;38.56
19208;BME280;9737;59.466;18.036;2023-05-25T05:28:04;102091.25;;;18.29;38.62
19208;BME280;9737;59.466;18.036;2023-05-25T05:30:33;102157.34;;;18.44;38.76
19208;BME280;9737;59.466;18.036;2023-05-25T05:33:05;102086.97;;;18.26;38.83
19208;BME280;9737;59.466;18.036;2023-05-25T05:35:34;102161.88;;;18.44;39.10
19208;BME280;9737;59.466;18.036;2023-05-25T05:38:03;102210.25;;;18.56;39.00
19208;BME280;9737;59.466;18.036;2023-05-25T05:40:32;102203.28;;;18.54;39.03
19208;BME280;9737;59.466;18.036;2023-05-25T05:43:00;102187.38;;;18.51;39.13
19208;BME280;9737;59.466;18.036;2023-05-25T05:45:29;102238.59;;;18.62;39.28
19208;BME280;9737;59.466;18.036;2023-05-25T05:47:58;102318.00;;;18.80;39.34
19208;BME280;9737;59.466;18.036;2023-05-25T05:50:28;102355.03;;;18.90;39.41
19208;BME280;9737;59.466;18.036;2023-05-25T05:52:57;102392.03;;;18.99;39.56
19208;BME280;9737;59.466;18.036;2023-05-25T05:55:25;102513.94;;;19.26;39.56
19208;BME280;9737;59.466;18.036;2023-05-25T05:57:54;102568.56;;;19.41;39.57
19208;BME280;9737;59.466;18.036;2023-05-25T06:00:23;102403.69;;;18.99;39.62
19208;BME280;9737;59.466;18.036;2023-05-25T06:02:51;102353.44;;;18.87;39.57
19208;BME280;9737;59.466;18.036;2023-05-25T06:05:20;102380.03;;;18.92;39.63
19208;BME280;9737;59.466;18.036;2023-05-25T06:07:50;102438.38;;;19.04;39.90
19208;BME280;9737;59.466;18.036;2023-05-25T06:10:19;102447.19;;;19.06;40.11
19208;BME280;9737;59.466;18.036;2023-05-25T06:12:47;102456.91;;;19.08;39.80
19208;BME280;9737;59.466;18.036;2023-05-25T06:15:16;102526.69;;;19.24;40.19
19208;BME280;9737;59.466;18.036;2023-05-25T06:17:44;102522.41;;;19.22;40.04
19208;BME280;9737;59.466;18.036;2023-05-25T06:20:13;102556.63;;;19.32;40.32
19208;BME280;9737;59.466;18.036;2023-05-25T06:22:42;102538.22;;;19.26;40.31
19208;BME280;9737;59.466;18.036;2023-05-25T06:25:12;102441.31;;;19.01;40.26
19208;BME280;9737;59.466;18.036;2023-05-25T06:27:41;102390.06;;;18.90;40.30
19208;BME280;9737;59.466;18.036;2023-05-25T06:30:10;102399.00;;;18.90;40.38
19208;BME280;9737;59.466;18.036;2023-05-25T06:32:39;102376.84;;;18.86;40.34
19208;BME280;9737;59.466;18.036;2023-05-25T06:35:09;102451.13;;;19.02;40.48
19208;BME280;9737;59.466;18.036;2023-05-25T06:37:46;102433.47;;;18.98;40.46
19208;BME280;9737;59.466;18.036;2023-05-25T06:40:17;102387.63;;;18.86;40.57
19208;BME280;9737;59.466;18.036;2023-05-25T06:42:45;102464.25;;;19.06;40.42
19208;BME280;9737;59.466;18.036;2023-05-25T06:45:13;102511.13;;;19.16;40.64
19208;BME280;9737;59.466;18.036;2023-05-25T06:47:42;102563.25;;;19.28;40.69
19208;BME280;9737;59.466;18.036;2023-05-25T06:50:11;102595.03;;;19.36;40.57
19208;BME280;9737;59.466;18.036;2023-05-25T06:52:40;102680.66;;;19.58;40.79
19208;BME280;9737;59.466;18.036;2023-05-25T06:55:09;102746.00;;;19.74;40.75
19208;BME280;9737;59.466;18.036;2023-05-25T06:57:40;102773.41;;;19.80;40.82
19208;BME280;9737;59.466;18.036;2023-05-25T07:00:10;102782.25;;;19.83;40.98
19208;BME280;9737;59.466;18.036;2023-05-25T07:02:39;102751.41;;;19.74;41.05
19208;BME280;9737;59.466;18.036;2023-05-25T07:05:08;102774.50;;;19.78;40.98
19208;BME280;9737;59.466;18.036;2023-05-25T07:07:37;102696.84;;;19.58;41.06
19208;BME280;9737;59.466;18.036;2023-05-25T07:10:07;102744.53;;;19.70;41.10
19208;BME280;9737;59.466;18.036;2023-05-25T07:12:36;102769.94;;;19.78;41.13
19208;BME280;9737;59.466;18.036;2023-05-25T07:15:07;102822.16;;;19.90;41.04
19208;BME280;9737;59.466;18.036;2023-05-25T07:17:36;102753.38;;;19.72;41.07
19208;BME280;9737;59.466;18.036;2023-05-25T07:20:06;102816.13;;;19.87;41.08
19208;BME280;9737;59.466;18.036;2023-05-25T07:22:35;102756.81;;;19.74;41.29
19208;BME280;9737;59.466;18.036;2023-05-25T07:25:04;102786.91;;;19.80;41.16
19208;BME280;9737;59.466;18.036;2023-05-25T07:27:33;102838.97;;;19.94;41.17
19208;BME280;9737;59.466;18.036;2023-05-25T07:30:02;102872.81;;;19.99;41.09
19208;BME280;9737;59.466;18.036;2023-05-25T07:32:33;102541.66;;;19.17;41.31
19208;BME280;9737;59.466;18.036;2023-05-25T07:35:02;102293.81;;;18.56;41.33
19208;BME280;9737;59.466;18.036;2023-05-25T07:37:33;102359.88;;;18.73;41.22
19208;BME280;9737;59.466;18.036;2023-05-25T07:40:01;102516.88;;;19.12;41.16
19208;BME280;9737;59.466;18.036;2023-05-25T07:42:30;102628.06;;;19.39;41.30
19208;BME280;9737;59.466;18.036;2023-05-25T07:45:01;102660.84;;;19.46;41.11
19208;BME280;9737;59.466;18.036;2023-05-25T07:47:29;102712.91;;;19.59;41.30
19208;BME280;9737;59.466;18.036;2023-05-25T07:49:59;102767.59;;;19.74;41.33
19208;BME280;9737;59.466;18.036;2023-05-25T07:52:28;102872.06;;;19.97;41.35
19208;BME280;9737;59.466;18.036;2023-05-25T07:54:56;102898.38;;;20.06;41.47
19208;BME280;9737;59.466;18.036;2023-05-25T07:57:25;102969.19;;;20.23;41.28
19208;BME280;9737;59.466;18.036;2023-05-25T07:59:53;103116.13;;;20.58;41.44
19208;BME280;9737;59.466;18.036;2023-05-25T08:02:22;103289.75;;;21.00;41.47
19208;BME280;9737;59.466;18.036;2023-05-25T08:04:50;103405.78;;;21.30;41.45
19208;BME280;9737;59.466;18.036;2023-05-25T08:07:21;103167.59;;;20.69;41.44
19208;BME280;9737;59.466;18.036;2023-05-25T08:09:50;103243.69;;;20.89;41.43
19208;BME280;9737;59.466;18.036;2023-05-25T08:12:19;103357.94;;;21.18;41.48
19208;BME280;9737;59.466;18.036;2023-05-25T08:15:07;103549.56;;;21.63;41.57
19208;BME280;9737;59.466;18.036;2023-05-25T08:17:36;103703.34;;;21.98;41.54
19208;BME280;9737;59.466;18.036;2023-05-25T08:20:07;103609.16;;;21.76;41.37
19208;BME280;9737;59.466;18.036;2023-05-25T08:22:38;103852.69;;;22.33;41.65
19208;BME280;9737;59.466;18.036;2023-05-25T08:25:07;103928.09;;;22.53;41.60
19208;BME280;9737;59.466;18.036;2023-05-25T08:27:35;103491.22;;;21.47;41.48
19208;BME280;9737;59.466;18.036;2023-05-25T08:30:05;103376.75;;;21.19;41.53
19208;BME280;9737;59.466;18.036;2023-05-25T08:32:34;103531.06;;;21.57;41.59
19208;BME280;9737;59.466;18.036;2023-05-25T08:35:03;103690.84;;;21.95;41.64
19208;BME280;9737;59.466;18.036;2023-05-25T08:37:32;103757.56;;;22.11;41.41
19208;BME280;9737;59.466;18.036;2023-05-25T08:40:03;103880.16;;;22.41;41.46
19208;BME280;9737;59.466;18.036;2023-05-25T08:42:33;103882.84;;;22.41;41.52
19208;BME280;9737;59.466;18.036;2023-05-25T08:45:02;103866.81;;;22.38;41.31
19208;BME280;9737;59.466;18.036;2023-05-25T08:47:32;103856.19;;;22.35;41.62
19208;BME280;9737;59.466;18.036;2023-05-25T08:50:02;104106.22;;;22.94;41.63
19208;BME280;9737;59.466;18.036;2023-05-25T08:52:32;104249.56;;;23.29;41.53
19208;BME280;9737;59.466;18.036;2023-05-25T08:55:05;104452.81;;;23.77;41.52
19208;BME280;9737;59.466;18.036;2023-05-25T08:57:42;104210.44;;;23.18;41.62
19208;BME280;9737;59.466;18.036;2023-05-25T09:00:14;104230.00;;;23.24;41.37
19208;BME280;9737;59.466;18.036;2023-05-25T09:02:53;104372.50;;;23.59;41.54
19208;BME280;9737;59.466;18.036;2023-05-25T09:05:25;104768.91;;;24.51;41.56
19208;BME280;9737;59.466;18.036;2023-05-25T09:07:55;104835.97;;;24.66;41.60
19208;BME280;9737;59.466;18.036;2023-05-25T09:10:26;104784.06;;;24.55;41.70
19208;BME280;9737;59.466;18.036;2023-05-25T09:12:55;104967.25;;;24.99;41.58
19208;BME280;9737;59.466;18.036;2023-05-25T09:15:24;105093.44;;;25.28;41.48
19208;BME280;9737;59.466;18.036;2023-05-25T09:17:53;105031.81;;;25.12;41.56
19208;BME280;9737;59.466;18.036;2023-05-25T09:20:22;104668.81;;;24.27;41.37
19208;BME280;9737;59.466;18.036;2023-05-25T09:22:51;104583.13;;;24.07;41.36
19208;BME280;9737;59.466;18.036;2023-05-25T09:25:20;104924.25;;;24.90;41.33
19208;BME280;9737;59.466;18.036;2023-05-25T09:27:50;105141.69;;;25.41;41.27
19208;BME280;9737;59.466;18.036;2023-05-25T09:30:22;105404.25;;;26.01;41.39
19208;BME280;9737;59.466;18.036;2023-05-25T09:32:53;105734.44;;;26.78;41.24
19208;BME280;9737;59.466;18.036;2023-05-25T09:35:22;105636.63;;;26.55;41.48
19208;BME280;9737;59.466;18.036;2023-05-25T09:37:52;105431.19;;;26.07;41.26
19208;BME280;9737;59.466;18.036;2023-05-25T09:40:22;105875.53;;;27.11;41.43
19208;BME280;9737;59.466;18.036;2023-05-25T09:42:52;106204.84;;;27.86;41.46
19208;BME280;9737;59.466;18.036;2023-05-25T09:45:22;106503.22;;;28.52;41.01
19208;BME280;9737;59.466;18.036;2023-05-25T09:47:53;106492.34;;;28.50;41.21
19208;BME280;9737;59.466;18.036;2023-05-25T09:50:22;106740.44;;;29.08;40.95
19208;BME280;9737;59.466;18.036;2023-05-25T09:52:53;106801.00;;;29.20;41.08
19208;BME280;9737;59.466;18.036;2023-05-25T09:55:24;106986.16;;;29.64;41.16
19208;BME280;9737;59.466;18.036;2023-05-25T09:58:11;106958.16;;;29.57;41.02
19208;BME280;9737;59.466;18.036;2023-05-25T10:00:40;106980.75;;;29.62;41.10
19208;BME280;9737;59.466;18.036;2023-05-25T10:03:10;106930.19;;;29.50;40.98
19208;BME280;9737;59.466;18.036;2023-05-25T10:05:41;106890.25;;;29.43;40.89
19208;BME280;9737;59.466;18.036;2023-05-25T10:08:10;107109.13;;;29.91;40.76
19208;BME280;9737;59.466;18.036;2023-05-25T10:10:39;107222.28;;;30.17;40.63
19208;BME280;9737;59.466;18.036;2023-05-25T10:13:11;107061.97;;;29.83;40.56
19208;BME280;9737;59.466;18.036;2023-05-25T10:15:42;106537.28;;;28.63;40.33
19208;BME280;9737;59.466;18.036;2023-05-25T10:18:13;106207.13;;;27.93;40.62
19208;BME280;9737;59.466;18.036;2023-05-25T10:20:44;106614.59;;;28.86;40.06
19208;BME280;9737;59.466;18.036;2023-05-25T10:23:15;106907.16;;;29.53;40.08
19208;BME280;9737;59.466;18.036;2023-05-25T10:25:49;107203.84;;;30.19;40.11
19208;BME280;9737;59.466;18.036;2023-05-25T10:28:27;107188.56;;;30.13;40.10
19208;BME280;9737;59.466;18.036;2023-05-25T10:30:56;106979.28;;;29.72;39.94
19208;BME280;9737;59.466;18.036;2023-05-25T10:33:26;106729.09;;;29.14;39.68
19208;BME280;9737;59.466;18.036;2023-05-25T10:35:55;106797.56;;;29.33;39.56
19208;BME280;9737;59.466;18.036;2023-05-25T10:38:38;107346.56;;;30.57;39.69
19208;BME280;9737;59.466;18.036;2023-05-25T10:41:09;107386.56;;;30.64;39.52
19208;BME280;9737;59.466;18.036;2023-05-25T10:43:39;107524.22;;;30.97;39.43
19208;BME280;9737;59.466;18.036;2023-05-25T10:46:08;107850.81;;;31.70;39.71
19208;BME280;9737;59.466;18.036;2023-05-25T10:48:38;107797.19;;;31.60;39.27
19208;BME280;9737;59.466;18.036;2023-05-25T10:51:07;107489.63;;;30.91;39.14
19208;BME280;9737;59.466;18.036;2023-05-25T10:53:42;107618.38;;;31.21;39.08
19208;BME280;9737;59.466;18.036;2023-05-25T10:56:12;108077.78;;;32.25;39.20
19208;BME280;9737;59.466;18.036;2023-05-25T10:58:43;108157.75;;;32.44;38.61
19208;BME280;9737;59.466;18.036;2023-05-25T11:01:14;108150.53;;;32.42;38.65
19208;BME280;9737;59.466;18.036;2023-05-25T11:03:56;108467.25;;;33.12;38.42
19208;BME280;9737;59.466;18.036;2023-05-25T11:09:31;108263.91;;;32.73;38.24
19208;BME280;9737;59.466;18.036;2023-05-25T11:12:03;108381.44;;;32.98;38.50
19208;BME280;9737;59.466;18.036;2023-05-25T11:14:35;108422.25;;;33.10;38.01
19208;BME280;9737;59.466;18.036;2023-05-25T11:17:09;108530.75;;;33.32;37.84
19208;BME280;9737;59.466;18.036;2023-05-25T11:19:41;108700.19;;;33.72;37.90
19208;BME280;9737;59.466;18.036;2023-05-25T11:22:14;108478.59;;;33.24;37.62
19208;BME280;9737;59.466;18.036;2023-05-25T11:24:44;108427.63;;;33.13;37.89
19208;BME280;9737;59.466;18.036;2023-05-25T11:27:13;107982.53;;;32.18;37.70
19208;BME280;9737;59.466;18.036;2023-05-25T11:29:43;107858.84;;;31.93;37.43
19208;BME280;9737;59.466;18.036;2023-05-25T11:32:12;108335.34;;;33.00;37.08
19208;BME280;9737;59.466;18.036;2023-05-25T11:34:46;108169.56;;;32.65;37.34
19208;BME280;9737;59.466;18.036;2023-05-25T11:37:16;108230.44;;;32.81;37.37
19208;BME280;9737;59.466;18.036;2023-05-25T11:39:47;108350.63;;;33.07;36.74
19208;BME280;9737;59.466;18.036;2023-05-25T11:42:19;108380.69;;;33.13;36.62
19208;BME280;9737;59.466;18.036;2023-05-25T11:44:50;108362.47;;;33.09;37.01
19208;BME280;9737;59.466;18.036;2023-05-25T11:47:21;108194.78;;;32.76;36.57
19208;BME280;9737;59.466;18.036;2023-05-25T11:49:54;108660.97;;;33.82;36.68
19208;BME280;9737;59.466;18.036;2023-05-25T11:52:23;107518.09;;;31.26;36.56
19208;BME280;9737;59.466;18.036;2023-05-25T11:54:52;107086.69;;;30.34;36.38
19208;BME280;9737;59.466;18.036;2023-05-25T11:57:22;106968.22;;;30.07;35.97
19208;BME280;9737;59.466;18.036;2023-05-25T11:59:54;106285.88;;;28.51;36.28
19208;BME280;9737;59.466;18.036;2023-05-25T12:02:23;105580.84;;;26.88;35.87
19208;BME280;9737;59.466;18.036;2023-05-25T12:04:53;105295.47;;;26.23;35.50
19208;BME280;9737;59.466;18.036;2023-05-25T12:07:23;104932.13;;;25.36;35.43
19208;BME280;9737;59.466;18.036;2023-05-25T12:10:03;104700.53;;;24.82;35.33
19208;BME280;9737;59.466;18.036;2023-05-25T12:12:39;104911.19;;;25.37;35.14
19208;BME280;9737;59.466;18.036;2023-05-25T12:15:11;105296.84;;;26.31;35.03
19208;BME280;9737;59.466;18.036;2023-05-25T12:17:43;105470.81;;;26.71;34.90
19208;BME280;9737;59.466;18.036;2023-05-25T12:20:13;106075.22;;;28.17;34.91
19208;BME280;9737;59.466;18.036;2023-05-25T12:22:44;106818.97;;;29.90;34.97
19208;BME280;9737;59.466;18.036;2023-05-25T12:25:17;106382.44;;;28.86;35.06
19208;BME280;9737;59.466;18.036;2023-05-25T12:27:46;106950.06;;;30.20;34.96
19208;BME280;9737;59.466;18.036;2023-05-25T12:30:17;107430.72;;;31.30;34.58
19208;BME280;9737;59.466;18.036;2023-05-25T12:32:52;107066.69;;;30.47;34.78
19208;BME280;9737;59.466;18.036;2023-05-25T12:35:21;106479.59;;;29.12;35.04
19208;BME280;9737;59.466;18.036;2023-05-25T12:38:08;106261.47;;;28.62;34.48
19208;BME280;9737;59.466;18.036;2023-05-25T12:40:37;106131.78;;;28.32;34.71
19208;BME280;9737;59.466;18.036;2023-05-25T12:43:06;105874.34;;;27.75;34.48
19208;BME280;9737;59.466;18.036;2023-05-25T12:45:41;106256.66;;;28.66;34.43
19208;BME280;9737;59.466;18.036;2023-05-25T12:48:09;106362.97;;;28.91;34.17
19208;BME280;9737;59.466;18.036;2023-05-25T12:50:55;106286.34;;;28.74;34.03
19208;BME280;9737;59.466;18.036;2023-05-25T12:53:24;106024.34;;;28.13;34.35
19208;BME280;9737;59.466;18.036;2023-05-25T12:55:59;105621.78;;;27.17;34.09
19208;BME280;9737;59.466;18.036;2023-05-25T12:58:29;105415.19;;;26.72;33.55
19208;BME280;9737;59.466;18.036;2023-05-25T13:01:01;105859.50;;;27.79;33.81
19208;BME280;9737;59.466;18.036;2023-05-25T13:03:30;106607.00;;;29.54;33.75
19208;BME280;9737;59.466;18.036;2023-05-25T13:06:01;106842.69;;;30.09;33.78
19208;BME280;9737;59.466;18.036;2023-05-25T13:08:30;106708.91;;;29.79;33.57